Terminal Aerodrome Forecast
Issued by NWS

Home | Current Version | Previous Version | Graphics & Text | Print | Product List | Glossary On
Versions: 1 2 3 4 5 6 7 8 9 10 11 12 13 14 15 16
000
FTUS43 KMPX 251502 AAB
TAFAXN
TAF AMD
KAXN 251502Z 2515/2612 09012G18KT P6SM BKN040
     FM251900 09011G18KT P6SM BKN060
     FM260100 10006KT P6SM SKC=

USA.gov is the U.S. government's official web portal to all federal, state and local government web resources and services.